Time;durP1;ratioP1;P1;durP2;ratioP2;P2;SDS_P1;SDS_P2;PMS_P1;PMS_P2;Temp;Humidity;BMP_temperature;BMP_pressure;BME280_temperature;BME280_humidity;BME280_pressure;Samples;Min_cycle;Max_cycle;Signal;HPM_P1;HPM_P2
2022/01/04 00:01:37;;;;;;;16.85;7.65;;;8.50;99.90;;;;;;5068581;28;20232;-79
2022/01/04 00:04:05;;;;;;;12.02;6.40;;;8.40;99.90;;;;;;5068232;28;20219;-84
2022/01/04 00:06:33;;;;;;;16.45;7.50;;;8.40;99.90;;;;;;5068303;28;20311;-80
2022/01/04 00:09:07;;;;;;;9.73;6.13;;;8.50;99.90;;;;;;5068452;28;20216;-77
2022/01/04 00:11:56;;;;;;;21.02;7.47;;;8.50;99.90;;;;;;5069077;28;20261;-80
2022/01/04 00:14:24;;;;;;;14.15;7.45;;;8.60;99.90;;;;;;5068437;28;20695;-82
2022/01/04 00:16:55;;;;;;;20.38;7.22;;;8.50;99.90;;;;;;5069236;28;20217;-79
2022/01/04 00:19:23;;;;;;;10.13;6.93;;;8.50;99.90;;;;;;5089668;28;20193;-79
2022/01/04 00:21:53;;;;;;;18.10;8.15;;;8.50;99.90;;;;;;5087043;28;20260;-79
2022/01/04 00:24:21;;;;;;;20.42;9.32;;;8.40;99.90;;;;;;5074437;28;20239;-82
2022/01/04 00:26:49;;;;;;;16.13;7.45;;;8.40;99.90;;;;;;5077120;28;20303;-82
2022/01/04 00:29:17;;;;;;;12.73;7.35;;;8.40;99.90;;;;;;5074082;28;20236;-81
2022/01/04 00:31:45;;;;;;;22.00;7.70;;;8.40;99.90;;;;;;5074883;28;20295;-79
2022/01/04 00:34:14;;;;;;;16.90;6.93;;;8.40;99.90;;;;;;5073663;28;20216;-77
2022/01/04 00:36:42;;;;;;;13.63;8.23;;;8.40;99.90;;;;;;5064337;28;20251;-77
2022/01/04 00:39:10;;;;;;;12.50;7.75;;;8.40;99.90;;;;;;5065669;28;20199;-77
2022/01/04 00:41:38;;;;;;;19.13;8.10;;;8.40;99.90;;;;;;5065320;28;20211;-76
2022/01/04 00:44:06;;;;;;;14.13;7.25;;;8.40;99.90;;;;;;5066319;28;20210;-77
2022/01/04 00:46:34;;;;;;;17.33;8.00;;;8.30;99.90;;;;;;5069639;28;20231;-75
2022/01/04 00:49:11;;;;;;;17.58;7.72;;;8.30;99.90;;;;;;5070478;28;20236;-77
2022/01/04 00:51:43;;;;;;;17.05;7.93;;;8.30;99.90;;;;;;5067723;28;20216;-77
2022/01/04 00:54:11;;;;;;;15.40;7.80;;;8.30;99.90;;;;;;5066198;28;20200;-77
2022/01/04 00:56:39;;;;;;;18.90;8.55;;;8.30;99.90;;;;;;5068849;28;20220;-77
2022/01/04 00:59:08;;;;;;;18.02;8.70;;;8.30;99.90;;;;;;5068296;28;20715;-77
2022/01/04 01:01:36;;;;;;;21.15;9.80;;;8.30;99.90;;;;;;5068940;28;20266;-78
2022/01/04 01:04:05;;;;;;;18.73;7.40;;;8.30;99.90;;;;;;5066033;28;20748;-78
2022/01/04 01:06:34;;;;;;;23.50;8.65;;;8.30;99.90;;;;;;5066618;28;20239;-78
2022/01/04 01:09:04;;;;;;;16.17;8.15;;;8.30;99.90;;;;;;5067193;28;20209;-78
2022/01/04 01:11:32;;;;;;;18.08;7.97;;;8.30;99.90;;;;;;5066814;28;20219;-79
2022/01/04 01:14:00;;;;;;;14.68;8.32;;;8.30;99.90;;;;;;5070460;28;20236;-77
2022/01/04 01:16:28;;;;;;;14.40;8.90;;;8.30;99.90;;;;;;5076145;28;20253;-78
2022/01/04 01:18:56;;;;;;;18.60;8.32;;;8.30;99.90;;;;;;5065133;28;20197;-78
2022/01/04 01:21:24;;;;;;;15.05;7.85;;;8.40;99.90;;;;;;5068106;28;20197;-78
2022/01/04 01:23:52;;;;;;;19.13;8.45;;;8.40;99.90;;;;;;5067865;28;20746;-79
2022/01/04 01:26:21;;;;;;;27.23;10.00;;;8.40;99.90;;;;;;5065455;28;20229;-78
2022/01/04 01:28:49;;;;;;;15.35;8.73;;;8.50;99.90;;;;;;5062829;28;20686;-77
2022/01/04 01:31:17;;;;;;;15.60;8.98;;;8.50;99.90;;;;;;5063416;28;20664;-76
2022/01/04 01:33:45;;;;;;;15.27;8.02;;;8.50;99.90;;;;;;5063928;28;20276;-80
2022/01/04 01:36:13;;;;;;;15.38;8.20;;;8.50;99.90;;;;;;5071002;28;20217;-80
2022/01/04 01:38:41;;;;;;;14.43;8.43;;;8.50;99.90;;;;;;5073409;28;20205;-80
2022/01/04 01:41:09;;;;;;;15.63;8.77;;;8.50;99.90;;;;;;5067662;28;20281;-81
2022/01/04 01:43:38;;;;;;;14.50;8.85;;;8.50;99.90;;;;;;5069942;28;20452;-81
2022/01/04 01:46:06;;;;;;;14.00;7.80;;;8.50;99.90;;;;;;5076600;28;20225;-80
2022/01/04 01:48:34;;;;;;;12.75;8.15;;;8.50;99.90;;;;;;5077395;28;20228;-80
2022/01/04 01:51:03;;;;;;;18.58;9.32;;;8.50;99.90;;;;;;5068284;28;20284;-78
2022/01/04 01:53:31;;;;;;;16.77;10.20;;;8.60;99.90;;;;;;5065814;28;20264;-79
2022/01/04 01:55:59;;;;;;;18.88;9.35;;;8.60;99.90;;;;;;5066104;28;20276;-79
2022/01/04 01:58:27;;;;;;;18.95;8.90;;;8.60;99.90;;;;;;5065018;28;20215;-78
2022/01/04 02:00:56;;;;;;;15.68;7.50;;;8.60;99.90;;;;;;5068113;28;20193;-78
2022/01/04 02:03:24;;;;;;;11.95;7.45;;;8.70;99.90;;;;;;5068096;28;20304;-82
2022/01/04 02:05:52;;;;;;;15.55;7.65;;;8.70;99.90;;;;;;5066925;28;20786;-78
2022/01/04 02:08:20;;;;;;;18.13;7.80;;;8.60;99.90;;;;;;5070641;28;20577;-78
2022/01/04 02:10:51;;;;;;;12.35;7.32;;;8.70;99.90;;;;;;5070058;28;20285;-79
2022/01/04 02:13:19;;;;;;;11.48;6.72;;;8.70;99.90;;;;;;5069320;28;20384;-81
2022/01/04 02:15:47;;;;;;;20.05;9.18;;;8.80;99.90;;;;;;5066660;28;20815;-80
2022/01/04 02:18:16;;;;;;;18.63;8.10;;;8.80;99.90;;;;;;5065292;28;20213;-74
2022/01/04 02:20:46;;;;;;;13.93;7.25;;;8.70;99.90;;;;;;5063606;28;20205;-75
2022/01/04 02:23:14;;;;;;;16.63;8.13;;;8.80;99.90;;;;;;5062886;28;20203;-77
2022/01/04 02:25:42;;;;;;;16.02;7.32;;;8.80;99.90;;;;;;5061204;28;20227;-74
2022/01/04 02:28:10;;;;;;;12.15;7.63;;;8.80;99.90;;;;;;5061811;28;20197;-74
2022/01/04 02:30:37;;;;;;;16.10;8.48;;;8.80;99.90;;;;;;5062060;28;20200;-75
2022/01/04 02:33:05;;;;;;;12.38;8.45;;;8.80;99.90;;;;;;5062989;28;20225;-75
2022/01/04 02:35:33;;;;;;;13.48;8.18;;;8.80;99.90;;;;;;5061605;28;20867;-76
2022/01/04 02:38:03;;;;;;;23.92;8.80;;;8.70;99.90;;;;;;5061641;28;20197;-75
2022/01/04 02:40:31;;;;;;;12.10;7.88;;;8.70;99.90;;;;;;5063126;28;20201;-77
2022/01/04 02:43:00;;;;;;;14.90;9.23;;;8.70;99.90;;;;;;5066198;28;20204;-79
2022/01/04 02:45:28;;;;;;;14.95;8.75;;;8.60;99.90;;;;;;5066922;28;20304;-77
2022/01/04 02:47:56;;;;;;;20.55;9.68;;;8.60;99.90;;;;;;5071047;28;20225;-75
2022/01/04 02:50:25;;;;;;;20.13;10.02;;;8.50;99.90;;;;;;5083333;28;20204;-78
2022/01/04 02:52:53;;;;;;;13.80;9.32;;;8.50;99.90;;;;;;5080289;28;20208;-76
2022/01/04 02:55:22;;;;;;;17.05;9.10;;;8.40;99.90;;;;;;5062556;28;20766;-75
2022/01/04 02:57:50;;;;;;;16.02;9.60;;;8.40;99.90;;;;;;5060518;28;20207;-75
2022/01/04 03:00:19;;;;;;;29.42;10.82;;;8.30;99.90;;;;;;5061381;28;20193;-75
2022/01/04 03:02:47;;;;;;;18.73;11.43;;;8.40;99.90;;;;;;5061720;28;20244;-75
2022/01/04 03:05:15;;;;;;;18.25;9.73;;;8.40;99.90;;;;;;5061917;28;20209;-76
2022/01/04 03:07:43;;;;;;;13.90;9.85;;;8.40;99.90;;;;;;5062763;28;20772;-76
2022/01/04 03:10:11;;;;;;;17.38;9.15;;;8.40;99.90;;;;;;5060993;28;20676;-74
2022/01/04 03:12:42;;;;;;;22.48;11.18;;;8.50;99.90;;;;;;5062594;28;20207;-72
2022/01/04 03:15:11;;;;;;;19.85;10.25;;;8.50;99.90;;;;;;5059697;28;20231;-72
2022/01/04 03:17:40;;;;;;;21.98;10.95;;;8.50;99.90;;;;;;5059791;28;20266;-75
2022/01/04 03:20:08;;;;;;;16.33;10.13;;;8.50;99.90;;;;;;5061124;28;20204;-77
2022/01/04 03:22:36;;;;;;;20.85;11.13;;;8.60;99.90;;;;;;5060520;28;20255;-75
2022/01/04 03:25:05;;;;;;;17.17;10.50;;;8.60;99.90;;;;;;5065123;28;20803;-77
2022/01/04 03:27:33;;;;;;;15.23;10.45;;;8.60;99.90;;;;;;5065279;28;20234;-75
2022/01/04 03:30:02;;;;;;;21.30;10.50;;;8.60;99.90;;;;;;5065525;28;20201;-76
2022/01/04 03:32:30;;;;;;;18.38;10.38;;;8.60;99.90;;;;;;5066759;28;20811;-73
2022/01/04 03:34:58;;;;;;;20.63;10.77;;;8.60;99.90;;;;;;5064222;28;20312;-73
2022/01/04 03:37:26;;;;;;;23.88;12.75;;;8.60;99.90;;;;;;5070041;28;20247;-75
2022/01/04 03:39:54;;;;;;;27.80;12.88;;;8.50;99.90;;;;;;5068459;28;20852;-75
2022/01/04 03:42:22;;;;;;;21.02;11.50;;;8.40;99.90;;;;;;5071418;28;20296;-74
2022/01/04 03:44:50;;;;;;;19.50;13.38;;;8.40;99.90;;;;;;5065026;28;20232;-75
2022/01/04 03:47:19;;;;;;;16.63;12.80;;;8.30;99.90;;;;;;5065349;28;20339;-75
2022/01/04 03:49:47;;;;;;;24.83;12.77;;;8.40;99.90;;;;;;5063468;28;20196;-75
2022/01/04 03:52:14;;;;;;;21.05;12.52;;;8.40;99.90;;;;;;5065280;28;20692;-75
2022/01/04 03:54:42;;;;;;;23.90;12.40;;;8.40;99.90;;;;;;5065867;28;20201;-76
2022/01/04 03:57:10;;;;;;;21.98;13.40;;;8.30;99.90;;;;;;5066834;28;20315;-74
2022/01/04 03:59:38;;;;;;;22.13;13.57;;;8.30;99.90;;;;;;5069609;28;20209;-76
2022/01/04 04:02:06;;;;;;;32.83;13.15;;;8.40;99.90;;;;;;5065961;28;20200;-76
2022/01/04 04:04:35;;;;;;;25.63;13.13;;;8.40;99.90;;;;;;5063380;28;20205;-73
2022/01/04 04:07:03;;;;;;;18.08;12.20;;;8.40;99.90;;;;;;5063486;28;20213;-74
2022/01/04 04:09:34;;;;;;;24.10;12.93;;;8.40;99.90;;;;;;5065552;28;20219;-74
2022/01/04 04:12:04;;;;;;;19.23;13.02;;;8.40;99.90;;;;;;5075044;28;20258;-74
2022/01/04 04:14:32;;;;;;;27.05;12.10;;;8.50;99.90;;;;;;5079361;28;20193;-73
2022/01/04 04:17:11;;;;;;;22.15;13.68;;;8.50;99.90;;;;;;5080905;28;20221;-73
2022/01/04 04:19:41;;;;;;;23.90;13.40;;;8.50;99.90;;;;;;5068333;28;20208;-73
2022/01/04 04:22:08;;;;;;;15.95;11.95;;;8.50;99.90;;;;;;5068302;28;20760;-74
2022/01/04 04:24:36;;;;;;;21.33;13.68;;;8.50;99.90;;;;;;5066918;28;20252;-75
2022/01/04 04:27:05;;;;;;;22.92;13.50;;;8.60;99.90;;;;;;5067969;28;20224;-75
2022/01/04 04:29:33;;;;;;;18.10;12.70;;;8.60;99.90;;;;;;5078923;28;20690;-74
2022/01/04 04:32:02;;;;;;;25.08;12.40;;;8.60;99.90;;;;;;5073401;28;20668;-75
2022/01/04 04:34:30;;;;;;;25.00;12.65;;;8.70;99.90;;;;;;5069515;28;20205;-76
2022/01/04 04:36:59;;;;;;;19.60;12.43;;;8.60;99.90;;;;;;5070181;28;20304;-75
2022/01/04 04:39:27;;;;;;;18.38;11.38;;;8.60;99.90;;;;;;5065718;28;20201;-76
2022/01/04 04:41:56;;;;;;;20.45;12.13;;;8.60;99.90;;;;;;5064773;28;20814;-75
2022/01/04 04:44:24;;;;;;;24.40;12.80;;;8.50;99.90;;;;;;5062836;28;20284;-75
2022/01/04 04:46:52;;;;;;;17.35;12.30;;;8.50;99.90;;;;;;5063866;28;20304;-75
2022/01/04 04:49:20;;;;;;;22.15;13.00;;;8.50;99.90;;;;;;5062757;28;20221;-75
2022/01/04 04:51:48;;;;;;;25.02;14.60;;;8.60;99.90;;;;;;5062973;28;20207;-74
2022/01/04 04:54:17;;;;;;;22.10;14.13;;;8.60;99.90;;;;;;5061906;28;20288;-74
2022/01/04 04:56:45;;;;;;;25.33;15.00;;;8.60;99.90;;;;;;5062195;28;20234;-73
2022/01/04 04:59:13;;;;;;;29.38;14.10;;;8.70;99.90;;;;;;5062025;28;20837;-76
2022/01/04 05:01:41;;;;;;;20.65;14.07;;;8.60;99.90;;;;;;5062065;28;20207;-74
2022/01/04 05:04:09;;;;;;;23.15;14.07;;;8.70;99.90;;;;;;5062035;28;20197;-76
2022/01/04 05:06:37;;;;;;;23.27;14.10;;;8.70;99.90;;;;;;5060994;28;20733;-75
2022/01/04 05:09:05;;;;;;;21.35;13.98;;;8.70;99.90;;;;;;5062959;28;20221;-75
2022/01/04 05:11:34;;;;;;;27.13;14.95;;;8.70;99.90;;;;;;5062304;28;20804;-76
2022/01/04 05:14:02;;;;;;;22.45;14.63;;;8.60;99.90;;;;;;5062623;28;20197;-75
2022/01/04 05:16:30;;;;;;;26.05;13.20;;;8.50;99.90;;;;;;5061034;28;20217;-73
2022/01/04 05:18:58;;;;;;;19.83;11.73;;;8.40;99.90;;;;;;5061892;28;20197;-74
2022/01/04 05:21:25;;;;;;;24.60;13.40;;;8.40;99.90;;;;;;5061232;28;20684;-75
2022/01/04 05:23:54;;;;;;;26.98;14.25;;;8.40;99.90;;;;;;5061852;28;20807;-74
2022/01/04 05:26:22;;;;;;;28.58;15.68;;;8.40;99.90;;;;;;5061326;28;20252;-74
2022/01/04 05:28:51;;;;;;;23.27;14.15;;;8.40;99.90;;;;;;5060759;28;20270;-73
2022/01/04 05:31:19;;;;;;;19.50;12.93;;;8.40;99.90;;;;;;5060941;28;20200;-70
2022/01/04 05:33:47;;;;;;;23.80;15.20;;;8.40;99.90;;;;;;5061092;28;20244;-74
2022/01/04 05:36:15;;;;;;;33.67;14.18;;;8.40;99.90;;;;;;5063268;28;20225;-77
2022/01/04 05:38:43;;;;;;;21.45;13.32;;;8.40;99.90;;;;;;5064769;28;20224;-78
2022/01/04 05:41:11;;;;;;;30.05;13.45;;;8.40;99.90;;;;;;5063986;28;20209;-74
2022/01/04 05:43:39;;;;;;;30.67;14.43;;;8.30;99.90;;;;;;5061819;28;20211;-75
2022/01/04 05:46:08;;;;;;;27.60;14.20;;;8.40;99.90;;;;;;5082148;28;20227;-74
2022/01/04 05:48:36;;;;;;;28.63;15.45;;;8.30;99.90;;;;;;5089310;28;20213;-74
2022/01/04 05:51:04;;;;;;;23.30;15.35;;;8.30;99.90;;;;;;5071563;28;20284;-76
2022/01/04 05:53:33;;;;;;;27.25;16.05;;;8.30;99.90;;;;;;5063573;28;20205;-75
2022/01/04 05:56:01;;;;;;;32.63;15.95;;;8.30;99.90;;;;;;5061878;28;20278;-75
2022/01/04 05:58:29;;;;;;;27.42;14.93;;;8.40;99.90;;;;;;5062812;28;20201;-75
2022/01/04 06:00:58;;;;;;;32.67;14.60;;;8.40;99.90;;;;;;5063435;28;20698;-77
2022/01/04 06:03:28;;;;;;;27.02;14.65;;;8.40;99.90;;;;;;5063098;28;20201;-77
2022/01/04 06:05:56;;;;;;;31.58;15.23;;;8.40;99.90;;;;;;5059605;28;20231;-77
2022/01/04 06:08:30;;;;;;;32.03;15.18;;;8.40;99.90;;;;;;5061761;28;20223;-77
2022/01/04 06:10:58;;;;;;;33.80;15.90;;;8.30;99.90;;;;;;5060210;28;20920;-75
2022/01/04 06:16:11;;;;;;;27.15;15.43;;;8.20;99.90;;;;;;5060217;28;20224;-72
2022/01/04 06:18:42;;;;;;;25.90;16.42;;;8.20;99.90;;;;;;5059659;28;20258;-74
2022/01/04 06:21:10;;;;;;;30.05;16.05;;;8.30;99.90;;;;;;5059846;28;20201;-74
2022/01/04 06:23:38;;;;;;;29.48;16.83;;;8.30;99.90;;;;;;5059882;28;20213;-72
2022/01/04 06:26:07;;;;;;;25.17;16.13;;;8.40;99.90;;;;;;5060197;28;20248;-74
2022/01/04 06:28:35;;;;;;;31.50;17.67;;;8.40;99.90;;;;;;5059970;28;20217;-73
2022/01/04 06:31:03;;;;;;;29.58;15.38;;;8.50;99.90;;;;;;5059792;28;20797;-72
2022/01/04 06:33:31;;;;;;;26.00;17.02;;;8.50;99.90;;;;;;5059396;28;20232;-72
2022/01/04 06:36:00;;;;;;;25.92;16.92;;;8.50;99.90;;;;;;5058258;28;20219;-73
2022/01/04 06:38:28;;;;;;;32.78;16.45;;;8.50;99.90;;;;;;5059456;28;20288;-73
2022/01/04 06:40:56;;;;;;;29.58;17.73;;;8.50;99.90;;;;;;5059063;28;20234;-73
2022/01/04 06:43:24;;;;;;;33.30;18.60;;;8.60;99.90;;;;;;5059156;28;20224;-73
2022/01/04 06:45:52;;;;;;;33.00;18.35;;;8.50;99.90;;;;;;5059193;28;20296;-73
2022/01/04 06:48:20;;;;;;;30.95;18.00;;;8.50;99.90;;;;;;5059848;28;20709;-72
2022/01/04 06:50:48;;;;;;;30.23;17.95;;;8.60;99.90;;;;;;5059344;28;20207;-73
2022/01/04 06:53:17;;;;;;;28.02;17.58;;;8.50;99.90;;;;;;5059053;28;20204;-71
2022/01/04 06:55:50;;;;;;;33.10;17.20;;;8.40;99.90;;;;;;5058897;28;20315;-73
2022/01/04 06:58:18;;;;;;;31.30;18.40;;;8.40;99.90;;;;;;5059121;28;20759;-73
2022/01/04 07:00:45;;;;;;;39.25;18.27;;;8.40;99.90;;;;;;5058411;28;20197;-72
2022/01/04 07:03:13;;;;;;;44.45;20.77;;;8.40;99.90;;;;;;5059525;28;20200;-75
2022/01/04 07:05:41;;;;;;;31.77;20.40;;;8.30;99.90;;;;;;5059283;28;20232;-73
2022/01/04 07:08:09;;;;;;;32.75;19.65;;;8.30;99.90;;;;;;5059396;28;20204;-72
2022/01/04 07:10:38;;;;;;;41.88;19.88;;;8.40;99.90;;;;;;5058334;28;20217;-72
2022/01/04 07:13:06;;;;;;;31.65;17.85;;;8.40;99.90;;;;;;5059112;28;20733;-72
2022/01/04 07:15:34;;;;;;;31.33;19.40;;;8.40;99.90;;;;;;5059287;28;20217;-74
2022/01/04 07:18:02;;;;;;;34.75;19.20;;;8.40;99.90;;;;;;5059562;28;20688;-72
2022/01/04 07:20:30;;;;;;;33.63;18.05;;;8.50;99.90;;;;;;5060271;28;20205;-73
2022/01/04 07:22:58;;;;;;;37.42;21.00;;;8.50;99.90;;;;;;5059684;28;20211;-72
2022/01/04 07:25:26;;;;;;;32.17;19.90;;;8.40;99.90;;;;;;5060493;28;20304;-72
2022/01/04 07:27:55;;;;;;;32.90;20.95;;;8.50;99.90;;;;;;5061650;28;20303;-71
2022/01/04 07:30:23;;;;;;;35.85;19.58;;;8.40;99.90;;;;;;5059691;28;20225;-72
2022/01/04 07:32:51;;;;;;;32.08;18.85;;;8.40;99.90;;;;;;5059315;28;20235;-71
2022/01/04 07:35:19;;;;;;;39.75;21.02;;;8.40;99.90;;;;;;5058823;28;20201;-70
2022/01/04 07:37:47;;;;;;;32.40;18.52;;;8.40;99.90;;;;;;5058280;28;20714;-71
2022/01/04 07:40:15;;;;;;;35.78;19.30;;;8.40;99.90;;;;;;5058052;28;20197;-73
2022/01/04 07:42:43;;;;;;;32.53;17.98;;;8.50;99.90;;;;;;5058051;28;20676;-67
2022/01/04 07:45:12;;;;;;;33.47;17.67;;;8.50;99.90;;;;;;5058555;28;20197;-68
2022/01/04 07:47:41;;;;;;;29.50;17.20;;;8.60;99.90;;;;;;5058901;28;20211;-67
2022/01/04 07:50:09;;;;;;;27.60;17.25;;;8.70;99.90;;;;;;5058718;28;20221;-71
2022/01/04 07:52:38;;;;;;;26.58;18.40;;;8.70;99.90;;;;;;5057731;28;20304;-70
2022/01/04 07:55:06;;;;;;;37.20;18.50;;;8.70;99.90;;;;;;5042695;28;20740;-69
2022/01/04 07:57:35;;;;;;;27.27;17.70;;;8.70;99.90;;;;;;5053686;28;20934;-69
2022/01/04 08:00:03;;;;;;;28.15;19.15;;;8.80;99.90;;;;;;5057776;28;20207;-67
2022/01/04 08:02:32;;;;;;;34.13;19.70;;;8.80;99.90;;;;;;5057867;28;20219;-71
2022/01/04 08:05:00;;;;;;;33.58;17.65;;;8.90;99.90;;;;;;5057055;28;20197;-69
2022/01/04 08:07:28;;;;;;;32.03;19.35;;;8.90;99.90;;;;;;5058030;28;20225;-69
2022/01/04 08:09:56;;;;;;;29.25;17.85;;;8.90;99.90;;;;;;5058449;28;20236;-70
2022/01/04 08:12:24;;;;;;;31.98;17.98;;;8.90;99.90;;;;;;5060063;28;20201;-73
2022/01/04 08:14:52;;;;;;;29.85;18.83;;;8.90;99.90;;;;;;5062438;28;20193;-75
2022/01/04 08:17:20;;;;;;;27.67;16.85;;;8.90;99.90;;;;;;5066902;28;20216;-74
2022/01/04 08:19:51;;;;;;;32.55;18.98;;;8.80;99.90;;;;;;5073463;28;20193;-74
2022/01/04 08:22:19;;;;;;;30.85;18.27;;;8.80;99.90;;;;;;5066050;28;20205;-73
2022/01/04 08:24:47;;;;;;;34.00;19.48;;;8.80;99.90;;;;;;5062148;28;20262;-72
2022/01/04 08:27:15;;;;;;;32.42;18.25;;;8.70;99.90;;;;;;5062087;28;20231;-72
2022/01/04 08:29:43;;;;;;;34.35;18.77;;;8.80;99.90;;;;;;5061596;28;20247;-72
2022/01/04 08:32:11;;;;;;;28.95;17.98;;;8.80;99.90;;;;;;5062254;28;20235;-72
2022/01/04 08:34:39;;;;;;;28.60;16.92;;;8.80;99.90;;;;;;5062009;28;20881;-73
2022/01/04 08:37:09;;;;;;;25.63;16.50;;;8.80;99.90;;;;;;5063695;28;20224;-72
2022/01/04 08:39:37;;;;;;;35.30;17.85;;;8.80;99.90;;;;;;5062810;28;20216;-74
2022/01/04 08:42:06;;;;;;;30.77;18.20;;;8.70;99.90;;;;;;5061707;28;20200;-77
2022/01/04 08:44:36;;;;;;;31.08;18.20;;;8.70;99.90;;;;;;5062510;28;20207;-74
2022/01/04 08:47:04;;;;;;;33.17;19.08;;;8.70;99.90;;;;;;5062131;28;20693;-73
2022/01/04 08:49:32;;;;;;;28.08;17.50;;;8.70;99.90;;;;;;5065750;28;20225;-71
2022/01/04 08:52:01;;;;;;;28.38;18.73;;;8.70;99.90;;;;;;5065060;28;20250;-72
2022/01/04 08:54:30;;;;;;;31.38;19.13;;;8.80;99.90;;;;;;5065497;28;20201;-72
2022/01/04 08:56:58;;;;;;;29.67;17.45;;;8.80;99.90;;;;;;5051433;28;20318;-73
2022/01/04 08:59:27;;;;;;;31.13;18.77;;;8.80;99.90;;;;;;5063161;28;20244;-72
2022/01/04 09:01:56;;;;;;;24.85;18.50;;;8.80;99.90;;;;;;5066316;28;20219;-73
2022/01/04 09:04:24;;;;;;;27.23;19.40;;;8.90;99.90;;;;;;5071010;28;20185;-74
2022/01/04 09:06:52;;;;;;;30.65;17.98;;;9.00;99.90;;;;;;5079644;28;20240;-74
2022/01/04 09:09:20;;;;;;;26.17;17.40;;;9.00;99.90;;;;;;5089281;28;20196;-75
2022/01/04 09:11:50;;;;;;;28.60;17.77;;;9.00;99.90;;;;;;5091149;28;20208;-73
2022/01/04 09:14:24;;;;;;;30.00;18.65;;;9.00;99.90;;;;;;5086275;28;20351;-71
2022/01/04 09:19:35;;;;;;;29.02;18.45;;;8.80;99.90;;;;;;5044730;28;20394;-72
2022/01/04 09:22:04;;;;;;;25.75;18.77;;;8.80;99.90;;;;;;5068176;28;20837;-72
2022/01/04 09:24:32;;;;;;;28.55;18.10;;;8.80;99.90;;;;;;5064785;28;20205;-73
2022/01/04 09:27:05;;;;;;;28.90;18.83;;;8.90;99.90;;;;;;5051733;28;20229;-74
2022/01/04 09:29:34;;;;;;;28.10;17.80;;;8.90;99.90;;;;;;5063262;28;20797;-73
2022/01/04 09:32:02;;;;;;;31.52;18.83;;;8.90;99.90;;;;;;5063359;28;20281;-73
2022/01/04 09:34:30;;;;;;;30.60;19.88;;;9.00;99.90;;;;;;5064638;28;20197;-73
2022/01/04 09:36:59;;;;;;;30.98;17.95;;;8.90;99.90;;;;;;5061194;28;20220;-71
2022/01/04 09:39:30;;;;;;;26.58;18.52;;;8.90;99.90;;;;;;5063617;28;20383;-72
2022/01/04 09:41:59;;;;;;;32.42;19.15;;;8.90;99.90;;;;;;5064271;28;20272;-71
2022/01/04 09:44:28;;;;;;;28.58;18.20;;;9.00;99.90;;;;;;5062818;28;20627;-72
2022/01/04 09:46:58;;;;;;;22.92;17.13;;;8.90;99.90;;;;;;5060958;28;20213;-70
2022/01/04 09:49:26;;;;;;;25.90;15.90;;;8.90;99.90;;;;;;5064599;28;20448;-72
2022/01/04 09:51:54;;;;;;;29.17;19.15;;;8.90;99.90;;;;;;5063789;28;20217;-75
2022/01/04 09:54:25;;;;;;;26.55;17.05;;;9.00;99.90;;;;;;5064953;28;20235;-76
2022/01/04 09:56:54;;;;;;;24.48;17.20;;;9.00;99.90;;;;;;5062645;28;20305;-72
2022/01/04 09:59:22;;;;;;;25.15;16.98;;;9.00;99.90;;;;;;5065358;28;20250;-76
2022/01/04 10:02:00;;;;;;;25.20;17.27;;;9.10;99.90;;;;;;5061320;28;20846;-74
2022/01/04 10:04:28;;;;;;;25.13;17.63;;;9.10;99.90;;;;;;5062355;28;20391;-75
2022/01/04 10:07:02;;;;;;;28.35;16.60;;;9.10;99.90;;;;;;5065649;28;20288;-75
2022/01/04 10:09:39;;;;;;;25.95;18.13;;;9.20;99.90;;;;;;5063689;28;20284;-73
2022/01/04 10:12:11;;;;;;;26.10;16.80;;;9.20;99.90;;;;;;5063509;28;20279;-73
2022/01/04 10:14:41;;;;;;;28.27;17.30;;;9.20;99.90;;;;;;5065188;28;20875;-72
2022/01/04 10:17:13;;;;;;;25.75;16.92;;;9.10;99.90;;;;;;5064029;28;20259;-72
2022/01/04 10:19:43;;;;;;;23.30;15.05;;;9.10;99.90;;;;;;5063241;28;20209;-73
2022/01/04 10:22:22;;;;;;;27.98;18.23;;;9.20;99.90;;;;;;5064355;28;20391;-78
2022/01/04 10:25:08;;;;;;;29.27;15.52;;;9.20;99.90;;;;;;5064309;28;20224;-70
2022/01/04 10:27:38;;;;;;;22.52;16.00;;;9.20;99.90;;;;;;5063589;28;20304;-73
2022/01/04 10:30:16;;;;;;;25.27;16.30;;;9.20;99.90;;;;;;5064882;28;20354;-72
2022/01/04 10:32:51;;;;;;;23.60;15.35;;;9.10;99.90;;;;;;5063884;28;20197;-73
2022/01/04 10:35:31;;;;;;;26.02;17.30;;;9.10;99.90;;;;;;5062244;28;20201;-72
2022/01/04 10:38:01;;;;;;;24.75;15.88;;;9.10;99.90;;;;;;5067841;28;20236;-72
2022/01/04 10:40:29;;;;;;;25.35;15.95;;;9.10;99.90;;;;;;5069923;28;20197;-71
2022/01/04 10:43:08;;;;;;;23.20;16.33;;;9.00;99.90;;;;;;5070649;28;20264;-72
2022/01/04 10:45:37;;;;;;;27.77;16.17;;;9.00;99.90;;;;;;5064783;28;20225;-72
2022/01/04 10:48:19;;;;;;;25.77;16.60;;;9.00;99.90;;;;;;5064422;28;20211;-72
2022/01/04 10:50:49;;;;;;;22.98;15.82;;;8.90;99.90;;;;;;5063382;28;20315;-72
2022/01/04 10:53:23;;;;;;;23.60;15.13;;;8.80;99.90;;;;;;5072160;28;20200;-72
2022/01/04 10:55:55;;;;;;;23.48;13.30;;;8.60;99.90;;;;;;5084911;28;20279;-74
2022/01/04 10:58:27;;;;;;;15.27;11.15;;;8.60;99.90;;;;;;5066177;28;20711;-72
2022/01/04 11:00:58;;;;;;;23.05;12.23;;;8.60;99.90;;;;;;5063594;28;20196;-76
2022/01/04 11:03:30;;;;;;;17.80;11.68;;;8.60;99.90;;;;;;5063039;28;20212;-75
2022/01/04 11:06:02;;;;;;;14.48;10.55;;;8.60;99.90;;;;;;5062769;28;20285;-73
2022/01/04 11:08:30;;;;;;;16.38;10.43;;;8.60;99.90;;;;;;5062948;28;20219;-75
2022/01/04 11:10:59;;;;;;;14.18;10.15;;;8.60;99.90;;;;;;5062847;28;20216;-73
2022/01/04 11:13:27;;;;;;;15.88;8.88;;;8.60;99.90;;;;;;5062554;28;20197;-73
2022/01/04 11:15:55;;;;;;;13.93;8.70;;;8.60;99.90;;;;;;5062212;28;20261;-73
2022/01/04 11:18:24;;;;;;;15.07;7.40;;;8.60;99.90;;;;;;5063370;28;20292;-74
2022/01/04 11:20:53;;;;;;;13.07;7.90;;;8.60;99.90;;;;;;5063094;28;20226;-74
2022/01/04 11:23:27;;;;;;;11.88;7.93;;;8.50;99.90;;;;;;5062254;28;20281;-75
2022/01/04 11:25:56;;;;;;;13.80;8.57;;;8.50;99.90;;;;;;5062809;28;20248;-75
2022/01/04 11:28:29;;;;;;;16.42;8.80;;;8.40;99.90;;;;;;5063102;28;20296;-75
2022/01/04 11:31:16;;;;;;;15.18;9.30;;;8.40;99.90;;;;;;5062940;28;20300;-74
2022/01/04 11:34:00;;;;;;;17.88;9.80;;;8.40;99.90;;;;;;5063540;28;20242;-73
2022/01/04 11:36:34;;;;;;;14.20;10.35;;;8.50;99.90;;;;;;5064554;28;20231;-73
2022/01/04 11:39:02;;;;;;;18.10;9.50;;;8.50;99.90;;;;;;5066188;28;20196;-74
2022/01/04 11:41:42;;;;;;;16.20;9.95;;;8.50;99.90;;;;;;5051880;28;20203;-76
2022/01/04 11:44:19;;;;;;;15.27;10.25;;;8.50;99.90;;;;;;5058247;28;20296;-73
2022/01/04 11:47:00;;;;;;;12.73;9.77;;;8.60;99.90;;;;;;5058080;28;20225;-74
2022/01/04 11:49:29;;;;;;;15.10;9.52;;;8.70;99.90;;;;;;5062735;28;20264;-75
2022/01/04 11:51:58;;;;;;;12.20;8.40;;;8.70;99.90;;;;;;5056932;28;20252;-73
2022/01/04 11:54:28;;;;;;;14.75;7.55;;;8.70;99.90;;;;;;5061925;28;20287;-73
2022/01/04 11:56:58;;;;;;;8.95;5.20;;;8.70;99.90;;;;;;5062728;28;20216;-75
2022/01/04 11:59:27;;;;;;;7.95;4.63;;;8.80;99.90;;;;;;5062845;28;20203;-73
2022/01/04 12:01:56;;;;;;;6.82;4.63;;;8.80;99.90;;;;;;5062620;28;20284;-75
2022/01/04 12:04:51;;;;;;;10.20;3.25;;;8.80;99.90;;;;;;5063586;28;20295;-75
2022/01/04 12:07:46;;;;;;;4.05;3.20;;;8.70;99.90;;;;;;5064041;28;20278;-73
2022/01/04 12:10:34;;;;;;;3.33;2.20;;;8.70;99.90;;;;;;5064384;28;20816;-72
2022/01/04 12:13:04;;;;;;;4.07;2.50;;;8.50;99.90;;;;;;5063053;28;20227;-72
2022/01/04 12:15:57;;;;;;;4.65;2.50;;;8.40;99.90;;;;;;5063747;28;20286;-73
2022/01/04 12:18:55;;;;;;;5.90;2.97;;;8.40;99.90;;;;;;5076191;28;20205;-71
2022/01/04 12:21:29;;;;;;;3.30;2.25;;;8.40;99.90;;;;;;5064089;28;20263;-71
2022/01/04 12:23:58;;;;;;;3.42;3.10;;;8.40;99.90;;;;;;5063222;28;20235;-72
2022/01/04 12:26:28;;;;;;;6.93;2.47;;;8.40;99.90;;;;;;5063120;28;20221;-71
2022/01/04 12:29:19;;;;;;;3.50;2.72;;;8.40;99.90;;;;;;5063517;28;20278;-72
2022/01/04 12:31:49;;;;;;;6.22;3.25;;;8.40;99.90;;;;;;5064136;28;20332;-72
2022/01/04 12:34:29;;;;;;;7.15;2.45;;;8.40;99.90;;;;;;5063301;28;20947;-72
2022/01/04 12:36:58;;;;;;;2.00;1.90;;;8.30;99.90;;;;;;5062796;28;20282;-70
2022/01/04 12:39:35;;;;;;;8.52;2.70;;;8.20;99.90;;;;;;5063039;28;20201;-71
2022/01/04 12:42:05;;;;;;;6.38;1.63;;;8.00;99.90;;;;;;5062774;28;20200;-70
2022/01/04 12:44:33;;;;;;;2.75;1.33;;;7.90;99.90;;;;;;5064068;28;20223;-75
2022/01/04 12:47:03;;;;;;;1.02;0.70;;;7.80;99.90;;;;;;5063897;28;20312;-73
2022/01/04 12:49:33;;;;;;;1.33;0.85;;;7.70;99.90;;;;;;5063549;28;20219;-73
2022/01/04 12:52:03;;;;;;;1.05;0.88;;;7.50;99.90;;;;;;5063392;28;20822;-70
2022/01/04 12:54:37;;;;;;;3.63;0.80;;;7.50;99.90;;;;;;5064283;28;20259;-69
2022/01/04 12:57:07;;;;;;;0.85;0.60;;;7.40;99.90;;;;;;5063731;28;20220;-69
2022/01/04 12:59:40;;;;;;;1.05;0.73;;;7.40;99.90;;;;;;5063843;28;20292;-69